Woodbury, KY

1:58 PM CDT on April 28, 2017 (GMT -0500)
MIDCREST DR. | | Change Station

Elev 686 ft 36.99 °N, 86.53 °W | Updated 15 seconds ago

Overcast
Overcast
81.9 °F
Feels Like 85 °F
N
1.0
Wind Variable Wind from SSE

Today
High -- | Low -- °F
--% Chance of Precip.
Yesterday
High -- | Low -- °F
Precip. -- in
Pressure 29.88 in
Visibility 10.0 miles
Clouds Mostly Cloudy 6000 ft
Mostly Cloudy 10000 ft
Heat Index 85 °F
Dew Point 68 °F
Humidity 65%
Rainfall 0.00 in
Snow Depth Not available.
5:55 AM 7:33 PM
Waxing Crescent, 8% visible
METAR KBWG 281853Z AUTO 20012KT 10SM BKN060 BKN100 27/19 A2989 RMK AO2 SLP118 T02720189 TSNO
Pressure 29.88 in
Visibility 10.0 miles
Clouds Mostly Cloudy 6000 ft
Mostly Cloudy 10000 ft
Heat Index 85 °F
Dew Point 68 °F
Humidity 65%
Rainfall 0.00 in
Snow Depth Not available.
5:55 AM 7:33 PM
Waxing Crescent, 8% visible
METAR KBWG 281853Z AUTO 20012KT 10SM BKN060 BKN100 27/19 A2989 RMK AO2 SLP118 T02720189 TSNO

Get Severe Weather Alerts

Thanks for signing up!

Be on the lookout for a verification email in your inbox.

You'll start receiving the daily forecast at 8 AM.

×

10-Day Weather Forecast

Almanac

Astronomy

Apr. 28, 2017 Rise Set
Actual Time
Civil Twilight
Nautical Twilight
Astronomical Twilight
Moon
Length of Visible Light
Length of Day
Tomorrow will be .
, % of the Moon is Illuminated

Today's Extremes

State Highs State Lows

Community

WunderPhotos

WunderBlog® & News

Nearby

Air Quality

  Air Quality AQ Index Pollutant
Not available.

Snow Depth

Station Depth Elevation

Earthquake Activity

City Distance Mag. Time & Date
Minimum magnitude displayed is 2.5.

Coastal Water Temperatures

Place Temperature

Stations

Nearby Weather Stations

Station Location Temp. Windchill Dew Point Humidity Wind Precip. Elev Updated Type
                   

Watches & Warnings

There are currently no watches in effect.